Baja Star — XCAY9 — position and weather

sailwx.info

Track history (hours):
 
Tides and Currents Weather Stations Pressure Air Temp Water Temp Dewpoint Dewpoint Depression Visibility Wind Speed Wind Dir Waves Ship Positions

Baja Star

Last reported at 2018-Jan-23 07:58 UTC. Time now 2018-Jan-23 08:14 UTC.
Position N 24°16' W 110°20'.

Length 170 m; draft 6.5 m.

Type: Ship (hazmat cat C). MMSI: 345040030.

Date/timePositionNaut miles runAvg speedWind from/ knotsBaromVisibWave heightAir tempDewpointWater temp
2018-Jan-23 07:58N 24°16' W 110°20'0 0.0
2018-Jan-23 07:28N 24°16' W 110°20'0 0.0
2018-Jan-23 06:58N 24°16' W 110°20'0 0.0
2018-Jan-23 06:28N 24°16' W 110°20'0 0.0
2018-Jan-23 05:58N 24°16' W 110°20'0 0.0
2018-Jan-23 05:28N 24°16' W 110°20'0 0.0
2018-Jan-23 04:58N 24°16' W 110°20'0 0.0
2018-Jan-23 04:28N 24°16' W 110°20'0 0.0
2018-Jan-23 03:58N 24°16' W 110°20'0 0.0
2018-Jan-23 03:28N 24°16' W 110°20'0 0.0
2018-Jan-23 02:52N 24°16' W 110°20'0 0.0
2018-Jan-23 02:28N 24°16' W 110°20'0 0.0
2018-Jan-23 01:58N 24°16' W 110°20'0 0.0
2018-Jan-23 01:28N 24°16' W 110°20'0 0.0
2018-Jan-23 00:58N 24°16' W 110°20'0 0.0
2018-Jan-23 00:27N 24°16' W 110°20'0 0.0
2018-Jan-22 23:58N 24°16' W 110°20'0 0.0
2018-Jan-22 23:26N 24°16' W 110°20'0 0.0
2018-Jan-22 22:58N 24°16' W 110°20'0 0.0
2018-Jan-22 22:30N 24°16' W 110°20'0 0.0
2018-Jan-22 21:59N 24°16' W 110°20'0 0.0
2018-Jan-22 21:28N 24°16' W 110°20'0 0.0
2018-Jan-22 20:58N 24°16' W 110°20'0 0.0
2018-Jan-22 20:28N 24°16' W 110°20'0 0.0
2018-Jan-22 19:58N 24°16' W 110°20'0 0.0
2018-Jan-22 19:28N 24°16' W 110°20'0 0.0
2018-Jan-22 18:58N 24°16' W 110°20'0 0.0
2018-Jan-22 18:29N 24°16' W 110°20'0 0.1
2018-Jan-22 17:58N 24°16' W 110°20'1 0.9
2018-Jan-22 17:24N 24°16' W 110°20'0 0.0
2018-Jan-22 17:00N 24°16' W 110°20'0 0.0
2018-Jan-22 16:30N 24°16' W 110°20'0 0.0
2018-Jan-22 16:00N 24°16' W 110°20'0 0.0
2018-Jan-22 15:30N 24°16' W 110°20'0 0.0
2018-Jan-22 15:00N 24°16' W 110°20'0 0.5
2018-Jan-22 14:29N 24°16' W 110°20'2 4.8
2018-Jan-22 13:59N 24°18' W 110°21'4 0.1
2018-Jan-21 03:45N 24°22' W 110°20'518.0
2018-Jan-21 03:29N 24°17' W 110°21'2 3.4
2018-Jan-21 02:58N 24°16' W 110°20'0 0.0
2018-Jan-21 02:29N 24°16' W 110°20'0 0.0
2018-Jan-21 02:00N 24°16' W 110°20'0 0.0
2018-Jan-21 01:30N 24°16' W 110°20'0 0.0
2018-Jan-21 01:00N 24°16' W 110°20'0 0.0
2018-Jan-21 00:30N 24°16' W 110°20'0 0.0
2018-Jan-21 00:00N 24°16' W 110°20'0 0.0
2018-Jan-20 23:30N 24°16' W 110°20'0 0.0
2018-Jan-20 22:59N 24°16' W 110°20'0 0.0
2018-Jan-20 22:30N 24°16' W 110°20'0 0.0
2018-Jan-20 22:00N 24°16' W 110°20'0 0.0
2018-Jan-20 21:30N 24°16' W 110°20'0 0.0
2018-Jan-20 21:00N 24°16' W 110°20'0 0.0
2018-Jan-20 20:30N 24°16' W 110°20'0 0.0
2018-Jan-20 20:00N 24°16' W 110°20'0 0.0
2018-Jan-20 19:30N 24°16' W 110°20'0 0.0
2018-Jan-20 19:00N 24°16' W 110°20'0 0.0
2018-Jan-20 18:30N 24°16' W 110°20'0 0.0
2018-Jan-20 18:00N 24°16' W 110°20'0 0.0
2018-Jan-20 17:30N 24°16' W 110°20'0 0.0
2018-Jan-20 17:00N 24°16' W 110°20'0 0.0
2018-Jan-20 16:30N 24°16' W 110°20'0 0.0
2018-Jan-20 16:00N 24°16' W 110°20'0 0.0
2018-Jan-20 15:30N 24°16' W 110°20'0 0.0
2018-Jan-20 15:00N 24°16' W 110°20'0 0.0
2018-Jan-20 14:30N 24°16' W 110°20'0 0.4
2018-Jan-20 13:59N 24°16' W 110°20'3 6.6
2018-Jan-20 13:30N 24°19' W 110°21'3 0.1
2018-Jan-19 03:46N 24°22' W 110°21'518.9
2018-Jan-19 03:30N 24°17' W 110°21'1 2.7
2018-Jan-19 02:59N 24°16' W 110°20'0 0.0
2018-Jan-19 02:30N 24°16' W 110°20'0 0.0
2018-Jan-19 01:58N 24°16' W 110°20'0 0.0
2018-Jan-19 01:28N 24°16' W 110°20'0 0.0
2018-Jan-19 00:58N 24°16' W 110°20'0 0.0
2018-Jan-19 00:28N 24°16' W 110°20'0 0.0
2018-Jan-18 23:58N 24°16' W 110°20'0 0.0
2018-Jan-18 23:28N 24°16' W 110°20'0 0.0
2018-Jan-18 22:58N 24°16' W 110°20'0 0.0
2018-Jan-18 22:28N 24°16' W 110°20'0 0.0
2018-Jan-18 21:58N 24°16' W 110°20'0 0.0
2018-Jan-18 21:28N 24°16' W 110°20'0 0.0
2018-Jan-18 20:58N 24°16' W 110°20'0 0.0
2018-Jan-18 20:28N 24°16' W 110°20'0 0.0
2018-Jan-18 20:00N 24°16' W 110°20'0 0.0
2018-Jan-18 19:25N 24°16' W 110°20'0 0.0
2018-Jan-18 18:55N 24°16' W 110°20'0 0.0
2018-Jan-18 18:28N 24°16' W 110°20'0 0.0
2018-Jan-18 17:58N 24°16' W 110°20'0 0.0
2018-Jan-18 17:28N 24°16' W 110°20'0 0.0
2018-Jan-18 16:58N 24°16' W 110°20'0 0.0
2018-Jan-18 16:28N 24°16' W 110°20'0 0.0
2018-Jan-18 15:57N 24°16' W 110°20'0 0.0
2018-Jan-18 15:19N 24°16' W 110°20'0 0.0
2018-Jan-18 14:58N 24°16' W 110°20'0 0.0
2018-Jan-18 14:28N 24°16' W 110°20'0 0.1
2018-Jan-18 14:00N 24°16' W 110°20'2 2.9
2018-Jan-18 13:27N 24°17' W 110°21'  
Track history (hours):
 
Tides and Currents Weather Stations Pressure Air Temp Water Temp Dewpoint Dewpoint Depression Visibility Wind Speed Wind Dir Waves Ship Positions

Baja Star

Last reported at 2018-Jan-23 07:58 UTC. Time now 2018-Jan-23 08:14 UTC.
Position N 24°16' W 110°20'.

Length 170 m; draft 6.5 m.

Type: Ship (hazmat cat C). MMSI: 345040030.

Date/timePositionNaut miles runAvg speedWind from/ knotsBaromVisibWave heightAir tempDewpointWater temp
2018-Jan-23 07:58N 24°16' W 110°20'0 0.0
2018-Jan-23 07:28N 24°16' W 110°20'0 0.0
2018-Jan-23 06:58N 24°16' W 110°20'0 0.0
2018-Jan-23 06:28N 24°16' W 110°20'0 0.0
2018-Jan-23 05:58N 24°16' W 110°20'0 0.0
2018-Jan-23 05:28N 24°16' W 110°20'0 0.0
2018-Jan-23 04:58N 24°16' W 110°20'0 0.0
2018-Jan-23 04:28N 24°16' W 110°20'0 0.0
2018-Jan-23 03:58N 24°16' W 110°20'0 0.0
2018-Jan-23 03:28N 24°16' W 110°20'0 0.0
2018-Jan-23 02:52N 24°16' W 110°20'0 0.0
2018-Jan-23 02:28N 24°16' W 110°20'0 0.0
2018-Jan-23 01:58N 24°16' W 110°20'0 0.0
2018-Jan-23 01:28N 24°16' W 110°20'0 0.0
2018-Jan-23 00:58N 24°16' W 110°20'0 0.0
2018-Jan-23 00:27N 24°16' W 110°20'0 0.0
2018-Jan-22 23:58N 24°16' W 110°20'0 0.0
2018-Jan-22 23:26N 24°16' W 110°20'0 0.0
2018-Jan-22 22:58N 24°16' W 110°20'0 0.0
2018-Jan-22 22:30N 24°16' W 110°20'0 0.0
2018-Jan-22 21:59N 24°16' W 110°20'0 0.0
2018-Jan-22 21:28N 24°16' W 110°20'0 0.0
2018-Jan-22 20:58N 24°16' W 110°20'0 0.0
2018-Jan-22 20:28N 24°16' W 110°20'0 0.0
2018-Jan-22 19:58N 24°16' W 110°20'0 0.0
2018-Jan-22 19:28N 24°16' W 110°20'0 0.0
2018-Jan-22 18:58N 24°16' W 110°20'0 0.0
2018-Jan-22 18:29N 24°16' W 110°20'0 0.1
2018-Jan-22 17:58N 24°16' W 110°20'1 0.9
2018-Jan-22 17:24N 24°16' W 110°20'0 0.0
2018-Jan-22 17:00N 24°16' W 110°20'0 0.0
2018-Jan-22 16:30N 24°16' W 110°20'0 0.0
2018-Jan-22 16:00N 24°16' W 110°20'0 0.0
2018-Jan-22 15:30N 24°16' W 110°20'0 0.0
2018-Jan-22 15:00N 24°16' W 110°20'0 0.5
2018-Jan-22 14:29N 24°16' W 110°20'2 4.8
2018-Jan-22 13:59N 24°18' W 110°21'4 0.1
2018-Jan-21 03:45N 24°22' W 110°20'518.0
2018-Jan-21 03:29N 24°17' W 110°21'2 3.4
2018-Jan-21 02:58N 24°16' W 110°20'0 0.0
2018-Jan-21 02:29N 24°16' W 110°20'0 0.0
2018-Jan-21 02:00N 24°16' W 110°20'0 0.0
2018-Jan-21 01:30N 24°16' W 110°20'0 0.0
2018-Jan-21 01:00N 24°16' W 110°20'0 0.0
2018-Jan-21 00:30N 24°16' W 110°20'0 0.0
2018-Jan-21 00:00N 24°16' W 110°20'0 0.0
2018-Jan-20 23:30N 24°16' W 110°20'0 0.0
2018-Jan-20 22:59N 24°16' W 110°20'0 0.0
2018-Jan-20 22:30N 24°16' W 110°20'0 0.0
2018-Jan-20 22:00N 24°16' W 110°20'0 0.0
2018-Jan-20 21:30N 24°16' W 110°20'0 0.0
2018-Jan-20 21:00N 24°16' W 110°20'0 0.0
2018-Jan-20 20:30N 24°16' W 110°20'0 0.0
2018-Jan-20 20:00N 24°16' W 110°20'0 0.0
2018-Jan-20 19:30N 24°16' W 110°20'0 0.0
2018-Jan-20 19:00N 24°16' W 110°20'0 0.0
2018-Jan-20 18:30N 24°16' W 110°20'0 0.0
2018-Jan-20 18:00N 24°16' W 110°20'0 0.0
2018-Jan-20 17:30N 24°16' W 110°20'0 0.0
2018-Jan-20 17:00N 24°16' W 110°20'0 0.0
2018-Jan-20 16:30N 24°16' W 110°20'0 0.0
2018-Jan-20 16:00N 24°16' W 110°20'0 0.0
2018-Jan-20 15:30N 24°16' W 110°20'0 0.0
2018-Jan-20 15:00N 24°16' W 110°20'0 0.0
2018-Jan-20 14:30N 24°16' W 110°20'0 0.4
2018-Jan-20 13:59N 24°16' W 110°20'3 6.6
2018-Jan-20 13:30N 24°19' W 110°21'3 0.1
2018-Jan-19 03:46N 24°22' W 110°21'518.9
2018-Jan-19 03:30N 24°17' W 110°21'1 2.7
2018-Jan-19 02:59N 24°16' W 110°20'0 0.0
2018-Jan-19 02:30N 24°16' W 110°20'0 0.0
2018-Jan-19 01:58N 24°16' W 110°20'0 0.0
2018-Jan-19 01:28N 24°16' W 110°20'0 0.0
2018-Jan-19 00:58N 24°16' W 110°20'0 0.0
2018-Jan-19 00:28N 24°16' W 110°20'0 0.0
2018-Jan-18 23:58N 24°16' W 110°20'0 0.0
2018-Jan-18 23:28N 24°16' W 110°20'0 0.0
2018-Jan-18 22:58N 24°16' W 110°20'0 0.0
2018-Jan-18 22:28N 24°16' W 110°20'0 0.0
2018-Jan-18 21:58N 24°16' W 110°20'0 0.0
2018-Jan-18 21:28N 24°16' W 110°20'0 0.0
2018-Jan-18 20:58N 24°16' W 110°20'0 0.0
2018-Jan-18 20:28N 24°16' W 110°20'0 0.0
2018-Jan-18 20:00N 24°16' W 110°20'0 0.0
2018-Jan-18 19:25N 24°16' W 110°20'0 0.0
2018-Jan-18 18:55N 24°16' W 110°20'0 0.0
2018-Jan-18 18:28N 24°16' W 110°20'0 0.0
2018-Jan-18 17:58N 24°16' W 110°20'0 0.0
2018-Jan-18 17:28N 24°16' W 110°20'0 0.0
2018-Jan-18 16:58N 24°16' W 110°20'0 0.0
2018-Jan-18 16:28N 24°16' W 110°20'0 0.0
2018-Jan-18 15:57N 24°16' W 110°20'0 0.0
2018-Jan-18 15:19N 24°16' W 110°20'0 0.0
2018-Jan-18 14:58N 24°16' W 110°20'0 0.0
2018-Jan-18 14:28N 24°16' W 110°20'0 0.1
2018-Jan-18 14:00N 24°16' W 110°20'2 2.9
2018-Jan-18 13:27N 24°17' W 110°21'  

Dump ship's entire track history